Time;durP1;ratioP1;P1;durP2;ratioP2;P2;SDS_P1;SDS_P2;PMS_P1;PMS_P2;Temp;Humidity;BMP_temperature;BMP_pressure;BME280_temperature;BME280_humidity;BME280_pressure;Samples;Min_cycle;Max_cycle;Signal;HPM_P1;HPM_P2
2022/05/15 00:02:02;;;;;;;0.30;0.30;;;;;;;;;;1894765;75;26263;-42
2022/05/15 00:04:30;;;;;;;0.25;0.25;;;;;;;;;;1870486;74;26327;-41
2022/05/15 00:06:58;;;;;;;0.30;0.30;;;;;;;;;;1889566;75;26617;-43
2022/05/15 00:09:25;;;;;;;0.42;0.42;;;;;;;;;;1888872;75;26430;-44
2022/05/15 00:11:52;;;;;;;0.30;0.30;;;;;;;;;;1888134;76;26246;-43
2022/05/15 00:14:20;;;;;;;0.30;0.30;;;;;;;;;;1890754;76;26337;-44
2022/05/15 00:16:47;;;;;;;0.30;0.30;;;;;;;;;;1882495;74;26340;-44
2022/05/15 00:19:15;;;;;;;0.33;0.33;;;;;;;;;;1887978;75;26250;-41
2022/05/15 00:21:42;;;;;;;0.30;0.30;;;;;;;;;;1888945;74;26820;-44
2022/05/15 00:24:09;;;;;;;0.37;0.37;;;;;;;;;;1887879;75;26788;-43
2022/05/15 00:26:36;;;;;;;0.33;0.33;;;;;;;;;;1888517;75;26760;-41
2022/05/15 00:29:04;;;;;;;0.30;0.30;;;;;;;;;;1885315;75;27357;-44
2022/05/15 00:31:31;;;;;;;0.30;0.30;;;;;;;;;;1888567;75;26328;-44
2022/05/15 00:33:58;;;;;;;0.40;0.40;;;;;;;;;;1888860;75;26518;-41
2022/05/15 00:36:26;;;;;;;0.40;0.40;;;;;;;;;;1888915;75;26249;-44
2022/05/15 00:38:53;;;;;;;0.72;0.50;;;;;;;;;;1879270;74;26308;-42
2022/05/15 00:41:20;;;;;;;0.30;0.30;;;;;;;;;;1888750;75;26255;-40
2022/05/15 00:43:49;;;;;;;0.37;0.37;;;;;;;;;;1885633;75;26654;-44
2022/05/15 00:46:21;;;;;;;0.40;0.40;;;;;;;;;;1883829;75;26254;-41
2022/05/15 00:48:49;;;;;;;0.50;0.50;;;;;;;;;;1887286;74;26273;-40
2022/05/15 00:51:18;;;;;;;0.30;0.30;;;;;;;;;;1888980;75;26329;-43
2022/05/15 00:53:48;;;;;;;0.35;0.35;;;;;;;;;;1887765;75;26396;-42
2022/05/15 00:56:16;;;;;;;0.40;0.40;;;;;;;;;;1881550;75;26743;-43
2022/05/15 00:58:46;;;;;;;0.30;0.30;;;;;;;;;;1885895;75;26242;-42
2022/05/15 01:01:14;;;;;;;0.30;0.30;;;;;;;;;;1882054;74;26564;-41
2022/05/15 01:03:42;;;;;;;0.30;0.30;;;;;;;;;;1888689;75;26304;-43
2022/05/15 01:06:09;;;;;;;0.30;0.30;;;;;;;;;;1888747;75;26621;-43
2022/05/15 01:08:36;;;;;;;0.35;0.35;;;;;;;;;;1886177;75;26294;-40
2022/05/15 01:11:11;;;;;;;0.40;0.40;;;;;;;;;;1878628;75;26294;-42
2022/05/15 01:13:40;;;;;;;0.30;0.30;;;;;;;;;;1878099;75;26254;-42
2022/05/15 01:16:08;;;;;;;0.20;0.20;;;;;;;;;;1878872;75;26396;-43
2022/05/15 01:18:36;;;;;;;1.20;0.30;;;;;;;;;;1872282;75;26259;-44
2022/05/15 01:21:05;;;;;;;0.40;0.40;;;;;;;;;;1874930;75;26264;-42
2022/05/15 01:23:33;;;;;;;0.30;0.30;;;;;;;;;;1872718;75;26781;-41
2022/05/15 01:26:00;;;;;;;0.30;0.30;;;;;;;;;;1878504;75;26805;-44
2022/05/15 01:28:28;;;;;;;0.40;0.40;;;;;;;;;;1877927;75;26778;-43
2022/05/15 01:31:00;;;;;;;0.30;0.30;;;;;;;;;;1879021;75;26368;-42
2022/05/15 01:33:25;;;;;;;0.25;0.25;;;;;;;;;;1877681;75;26321;-44
2022/05/15 01:35:53;;;;;;;0.40;0.40;;;;;;;;;;1875362;75;26308;-41
2022/05/15 01:38:20;;;;;;;0.30;0.30;;;;;;;;;;1878431;75;26722;-40
2022/05/15 01:40:49;;;;;;;0.40;0.40;;;;;;;;;;1870215;75;27268;-45
2022/05/15 01:43:16;;;;;;;0.23;0.23;;;;;;;;;;1875398;75;26325;-40
2022/05/15 01:45:44;;;;;;;0.30;0.30;;;;;;;;;;1876018;75;26289;-40
2022/05/15 01:48:11;;;;;;;0.30;0.30;;;;;;;;;;1878638;75;27343;-43
2022/05/15 01:50:39;;;;;;;0.35;0.35;;;;;;;;;;1877278;75;26413;-43
2022/05/15 01:53:07;;;;;;;0.30;0.30;;;;;;;;;;1873974;75;26302;-44
2022/05/15 01:55:34;;;;;;;0.35;0.35;;;;;;;;;;1877586;75;26847;-40
2022/05/15 01:58:01;;;;;;;0.33;0.33;;;;;;;;;;1879026;75;27320;-41
2022/05/15 02:00:30;;;;;;;0.40;0.40;;;;;;;;;;1875176;75;26251;-43
2022/05/15 02:02:57;;;;;;;0.93;0.30;;;;;;;;;;1879059;75;26726;-41
2022/05/15 02:05:24;;;;;;;0.30;0.30;;;;;;;;;;1874593;75;26826;-41
2022/05/15 02:07:52;;;;;;;0.40;0.40;;;;;;;;;;1877598;75;26718;-41
2022/05/15 02:10:20;;;;;;;0.30;0.30;;;;;;;;;;1875894;75;26320;-42
2022/05/15 02:12:48;;;;;;;0.40;0.40;;;;;;;;;;1879936;76;26285;-44
2022/05/15 02:15:15;;;;;;;0.50;0.50;;;;;;;;;;1877557;75;26342;-43
2022/05/15 02:17:43;;;;;;;0.40;0.40;;;;;;;;;;1876498;75;26263;-44
2022/05/15 02:20:11;;;;;;;0.40;0.40;;;;;;;;;;1879325;75;26323;-41
2022/05/15 02:22:39;;;;;;;0.30;0.30;;;;;;;;;;1879906;75;26244;-41
2022/05/15 02:25:08;;;;;;;0.40;0.40;;;;;;;;;;1869318;76;26676;-41
2022/05/15 02:27:36;;;;;;;0.30;0.30;;;;;;;;;;1899316;75;26771;-41
2022/05/15 02:30:04;;;;;;;0.33;0.33;;;;;;;;;;1873624;76;26259;-42
2022/05/15 02:32:32;;;;;;;0.30;0.30;;;;;;;;;;1880153;76;26251;-40
2022/05/15 02:34:59;;;;;;;0.30;0.30;;;;;;;;;;1880240;76;26305;-40
2022/05/15 02:37:26;;;;;;;0.30;0.30;;;;;;;;;;1879070;75;26448;-41
2022/05/15 02:39:53;;;;;;;0.40;0.40;;;;;;;;;;1848594;77;26261;-43
2022/05/15 02:42:21;;;;;;;0.40;0.40;;;;;;;;;;1848682;77;26441;-41
2022/05/15 02:44:48;;;;;;;0.40;0.40;;;;;;;;;;1853416;76;27346;-40
2022/05/15 02:47:16;;;;;;;0.42;0.42;;;;;;;;;;1859003;76;26278;-41
2022/05/15 02:52:29;;;;;;;0.20;0.20;;;;;;;;;;1913009;75;26299;-43
2022/05/15 02:54:56;;;;;;;0.30;0.30;;;;;;;;;;1888460;75;26236;-41
2022/05/15 02:57:24;;;;;;;0.40;0.40;;;;;;;;;;1880285;76;26290;-41
2022/05/15 02:59:51;;;;;;;0.40;0.40;;;;;;;;;;1880254;75;26324;-43
2022/05/15 03:02:18;;;;;;;2.20;0.30;;;;;;;;;;1849463;76;26307;-42
2022/05/15 03:04:47;;;;;;;0.37;0.37;;;;;;;;;;1867667;76;26265;-44
2022/05/15 03:07:14;;;;;;;0.30;0.30;;;;;;;;;;1848888;76;26266;-40
2022/05/15 03:09:41;;;;;;;0.30;0.30;;;;;;;;;;1877746;75;26388;-43
2022/05/15 03:12:09;;;;;;;0.40;0.40;;;;;;;;;;1887511;74;26250;-41
2022/05/15 03:14:36;;;;;;;0.30;0.30;;;;;;;;;;1894221;75;27367;-43
2022/05/15 03:17:04;;;;;;;0.40;0.40;;;;;;;;;;1894513;75;26797;-43
2022/05/15 03:19:31;;;;;;;0.37;0.37;;;;;;;;;;1894414;75;26253;-45
2022/05/15 03:21:58;;;;;;;0.37;0.37;;;;;;;;;;1878806;75;26268;-40
2022/05/15 03:24:26;;;;;;;0.40;0.40;;;;;;;;;;1873088;74;26250;-41
2022/05/15 03:26:53;;;;;;;0.25;0.25;;;;;;;;;;1894997;75;26218;-40
2022/05/15 03:29:20;;;;;;;0.28;0.28;;;;;;;;;;1891472;75;26233;-40
2022/05/15 03:31:48;;;;;;;0.30;0.30;;;;;;;;;;1879661;75;26254;-42
2022/05/15 03:34:16;;;;;;;0.30;0.30;;;;;;;;;;1885694;74;26179;-42
2022/05/15 03:36:44;;;;;;;0.30;0.30;;;;;;;;;;1892499;75;26246;-43
2022/05/15 03:39:12;;;;;;;0.20;0.20;;;;;;;;;;1894996;75;26238;-42
2022/05/15 03:41:39;;;;;;;0.30;0.30;;;;;;;;;;1884346;75;26269;-47
2022/05/15 03:44:07;;;;;;;0.30;0.30;;;;;;;;;;1891467;75;26713;-43
2022/05/15 03:46:36;;;;;;;0.15;0.15;;;;;;;;;;1894882;74;26245;-40
2022/05/15 03:49:04;;;;;;;0.30;0.30;;;;;;;;;;1893494;75;25551;-43
2022/05/15 03:51:31;;;;;;;0.30;0.30;;;;;;;;;;1895436;75;26780;-41
2022/05/15 03:53:58;;;;;;;0.40;0.40;;;;;;;;;;1894451;75;26230;-43
2022/05/15 03:59:12;;;;;;;0.20;0.20;;;;;;;;;;1885501;75;26212;-40
2022/05/15 04:01:39;;;;;;;0.20;0.20;;;;;;;;;;1895185;75;26701;-40
2022/05/15 04:04:06;;;;;;;0.20;0.20;;;;;;;;;;1895143;75;26681;-41
2022/05/15 04:06:33;;;;;;;0.10;0.10;;;;;;;;;;1895807;75;27424;-43
2022/05/15 04:09:01;;;;;;;0.20;0.20;;;;;;;;;;1892211;74;26183;-41
2022/05/15 04:11:29;;;;;;;0.20;0.20;;;;;;;;;;1845124;77;26245;-41
2022/05/15 04:13:56;;;;;;;0.20;0.20;;;;;;;;;;1867333;75;27172;-42
2022/05/15 04:16:23;;;;;;;0.28;0.28;;;;;;;;;;1869312;75;26325;-40
2022/05/15 04:18:51;;;;;;;0.20;0.20;;;;;;;;;;1880258;76;26251;-41
2022/05/15 04:21:18;;;;;;;0.23;0.23;;;;;;;;;;1871048;75;26219;-41
2022/05/15 04:23:45;;;;;;;0.30;0.30;;;;;;;;;;1864976;76;26258;-47
2022/05/15 04:26:13;;;;;;;0.30;0.30;;;;;;;;;;1879250;76;26702;-45
2022/05/15 04:28:41;;;;;;;0.82;0.20;;;;;;;;;;1877462;76;26271;-47
2022/05/15 04:31:09;;;;;;;0.30;0.20;;;;;;;;;;1877011;76;26258;-44
2022/05/15 04:33:36;;;;;;;0.20;0.20;;;;;;;;;;1876065;75;26247;-40
2022/05/15 04:36:04;;;;;;;0.17;0.17;;;;;;;;;;1879816;75;26300;-44
2022/05/15 04:38:32;;;;;;;0.20;0.20;;;;;;;;;;1879783;76;26333;-41
2022/05/15 04:40:59;;;;;;;0.25;0.25;;;;;;;;;;1879980;76;26332;-43
2022/05/15 04:43:26;;;;;;;0.10;0.10;;;;;;;;;;1875525;75;26318;-42
2022/05/15 04:45:53;;;;;;;0.20;0.20;;;;;;;;;;1873100;75;26726;-43
2022/05/15 04:48:21;;;;;;;0.20;0.20;;;;;;;;;;1879836;76;26261;-40
2022/05/15 04:50:48;;;;;;;0.30;0.30;;;;;;;;;;1880015;76;26758;-43
2022/05/15 04:53:16;;;;;;;0.10;0.10;;;;;;;;;;1873680;75;26256;-40
2022/05/15 04:55:43;;;;;;;0.28;0.28;;;;;;;;;;1874802;76;26246;-41
2022/05/15 04:58:10;;;;;;;0.20;0.20;;;;;;;;;;1879801;76;26257;-39
2022/05/15 05:00:38;;;;;;;0.20;0.20;;;;;;;;;;1879629;76;26294;-40
2022/05/15 05:03:06;;;;;;;0.10;0.10;;;;;;;;;;1880009;76;26573;-41
2022/05/15 05:05:33;;;;;;;0.10;0.10;;;;;;;;;;1860529;75;26326;-40
2022/05/15 05:08:00;;;;;;;0.10;0.10;;;;;;;;;;1875993;75;26250;-42
2022/05/15 05:10:28;;;;;;;0.30;0.30;;;;;;;;;;1878469;76;26325;-44
2022/05/15 05:12:55;;;;;;;0.13;0.13;;;;;;;;;;1887285;74;26201;-41
2022/05/15 05:15:22;;;;;;;0.20;0.20;;;;;;;;;;1879975;74;26827;-43
2022/05/15 05:17:50;;;;;;;0.10;0.10;;;;;;;;;;1888416;75;26533;-45
2022/05/15 05:20:17;;;;;;;0.10;0.10;;;;;;;;;;1887861;75;26329;-40
2022/05/15 05:22:44;;;;;;;0.20;0.20;;;;;;;;;;1888785;75;25587;-40
2022/05/15 05:25:12;;;;;;;0.17;0.17;;;;;;;;;;1888679;75;26804;-41
2022/05/15 05:27:41;;;;;;;0.10;0.10;;;;;;;;;;1887488;75;26242;-40
2022/05/15 05:30:10;;;;;;;0.20;0.20;;;;;;;;;;1884224;75;26309;-41
2022/05/15 05:32:37;;;;;;;0.20;0.20;;;;;;;;;;1885772;75;26230;-40
2022/05/15 05:35:05;;;;;;;0.35;0.13;;;;;;;;;;1886261;75;26262;-39
2022/05/15 05:37:32;;;;;;;0.03;0.03;;;;;;;;;;1887435;75;26690;-40
2022/05/15 05:40:00;;;;;;;0.20;0.20;;;;;;;;;;1886186;75;26268;-41
2022/05/15 05:42:27;;;;;;;0.25;0.25;;;;;;;;;;1888852;75;26245;-40
2022/05/15 05:44:55;;;;;;;1.22;0.20;;;;;;;;;;1886386;75;26761;-40
2022/05/15 05:47:25;;;;;;;0.20;0.20;;;;;;;;;;1887672;75;26301;-41
2022/05/15 05:49:53;;;;;;;0.20;0.20;;;;;;;;;;1889042;74;26254;-42
2022/05/15 05:52:20;;;;;;;1.45;0.33;;;;;;;;;;1886649;75;26235;-39
2022/05/15 05:54:47;;;;;;;0.47;0.30;;;;;;;;;;1882748;75;26388;-42
2022/05/15 05:57:15;;;;;;;1.55;0.72;;;;;;;;;;1888802;75;26230;-43
2022/05/15 05:59:43;;;;;;;1.77;0.20;;;;;;;;;;1888762;75;26270;-44
2022/05/15 06:02:10;;;;;;;1.80;0.28;;;;;;;;;;1884914;75;26641;-42
2022/05/15 06:04:41;;;;;;;6.37;0.40;;;;;;;;;;1888782;75;26691;-40
2022/05/15 06:07:10;;;;;;;1.95;0.40;;;;;;;;;;1888741;75;26230;-42
2022/05/15 06:09:38;;;;;;;4.87;0.50;;;;;;;;;;1885493;75;26286;-42
2022/05/15 06:12:06;;;;;;;8.15;0.55;;;;;;;;;;1887142;75;26335;-44
2022/05/15 06:14:33;;;;;;;7.83;0.90;;;;;;;;;;1893154;75;26249;-43
2022/05/15 06:17:01;;;;;;;7.78;0.57;;;;;;;;;;1892788;75;26298;-42
2022/05/15 06:19:30;;;;;;;13.00;0.78;;;;;;;;;;1895523;75;26332;-42
2022/05/15 06:21:57;;;;;;;7.17;0.80;;;;;;;;;;1889482;74;26696;-40
2022/05/15 06:24:28;;;;;;;7.12;1.98;;;;;;;;;;1891783;75;26237;-40
2022/05/15 06:27:02;;;;;;;9.53;1.35;;;;;;;;;;1888288;75;26347;-40
2022/05/15 06:29:26;;;;;;;11.22;0.95;;;;;;;;;;1891524;75;26797;-40
2022/05/15 06:31:53;;;;;;;4.72;0.70;;;;;;;;;;1892653;75;26266;-41
2022/05/15 06:34:21;;;;;;;9.10;0.68;;;;;;;;;;1894721;74;26252;-40
2022/05/15 06:36:48;;;;;;;3.77;0.70;;;;;;;;;;1894624;75;26770;-43
2022/05/15 06:39:17;;;;;;;5.22;0.75;;;;;;;;;;1893162;75;26264;-43
2022/05/15 06:41:46;;;;;;;7.65;0.60;;;;;;;;;;1894885;75;26847;-39
2022/05/15 06:44:13;;;;;;;5.42;0.80;;;;;;;;;;1893857;74;26315;-42
2022/05/15 06:46:40;;;;;;;6.35;0.70;;;;;;;;;;1894685;75;26273;-41
2022/05/15 06:49:07;;;;;;;3.77;0.80;;;;;;;;;;1894039;75;26339;-43
2022/05/15 06:51:35;;;;;;;4.00;0.70;;;;;;;;;;1895435;75;26339;-46
2022/05/15 06:54:02;;;;;;;2.87;0.60;;;;;;;;;;1895238;75;26363;-41
2022/05/15 06:59:15;;;;;;;3.98;0.50;;;;;;;;;;1892052;74;26282;-40
2022/05/15 07:01:42;;;;;;;5.72;0.80;;;;;;;;;;1899794;75;26266;-50
2022/05/15 07:04:09;;;;;;;3.27;0.62;;;;;;;;;;1885772;74;26603;-41
2022/05/15 07:06:37;;;;;;;4.28;0.80;;;;;;;;;;1889320;74;26214;-41
2022/05/15 07:09:04;;;;;;;2.70;0.50;;;;;;;;;;1895366;74;27666;-41
2022/05/15 07:11:32;;;;;;;3.47;0.98;;;;;;;;;;1888727;75;26269;-41
2022/05/15 07:13:59;;;;;;;4.47;0.55;;;;;;;;;;1871814;75;26261;-44
2022/05/15 07:16:26;;;;;;;4.78;0.80;;;;;;;;;;1856662;75;26357;-45
2022/05/15 07:18:53;;;;;;;3.98;0.50;;;;;;;;;;1848403;77;26346;-43
2022/05/15 07:21:20;;;;;;;3.40;0.60;;;;;;;;;;1864836;76;26257;-46
2022/05/15 07:23:48;;;;;;;1.98;0.57;;;;;;;;;;1870646;75;26250;-42
2022/05/15 07:26:15;;;;;;;2.52;0.40;;;;;;;;;;1875460;76;26567;-43
2022/05/15 07:28:45;;;;;;;2.10;0.53;;;;;;;;;;1877173;76;26328;-47
2022/05/15 07:31:11;;;;;;;3.62;0.42;;;;;;;;;;1861346;75;26933;-46
2022/05/15 07:33:39;;;;;;;1.42;0.40;;;;;;;;;;1871797;76;26815;-45
2022/05/15 07:36:06;;;;;;;7.60;0.62;;;;;;;;;;1878565;76;26262;-47
2022/05/15 07:38:34;;;;;;;2.72;0.25;;;;;;;;;;1871801;76;27333;-46
2022/05/15 07:41:01;;;;;;;1.90;0.55;;;;;;;;;;1865326;76;26825;-46
2022/05/15 07:43:28;;;;;;;9.85;0.70;;;;;;;;;;1863313;76;26695;-44
2022/05/15 07:45:55;;;;;;;0.72;0.30;;;;;;;;;;1874867;76;27516;-46
2022/05/15 07:48:23;;;;;;;0.65;0.37;;;;;;;;;;1879704;76;26243;-44
2022/05/15 07:50:52;;;;;;;1.22;0.40;;;;;;;;;;1871231;76;26367;-45
2022/05/15 07:53:19;;;;;;;1.70;0.40;;;;;;;;;;1884265;75;26401;-42
2022/05/15 07:55:46;;;;;;;2.40;0.50;;;;;;;;;;1879833;76;26317;-43
2022/05/15 07:58:13;;;;;;;4.58;0.30;;;;;;;;;;1879463;76;26251;-48
2022/05/15 08:00:41;;;;;;;2.40;0.30;;;;;;;;;;1860577;75;26429;-47
2022/05/15 08:03:09;;;;;;;0.98;0.25;;;;;;;;;;1874436;75;26308;-47
2022/05/15 08:08:23;;;;;;;2.45;0.30;;;;;;;;;;1877806;75;26291;-47
2022/05/15 08:10:51;;;;;;;0.28;0.28;;;;;;;;;;1879519;76;27557;-41
2022/05/15 08:13:20;;;;;;;0.40;0.20;;;;;;;;;;1883147;75;26266;-46
2022/05/15 08:15:48;;;;;;;2.00;0.23;;;;;;;;;;1892839;74;26332;-41
2022/05/15 08:23:48;;;;;;;0.45;0.20;;;;;;;;;;1887905;75;26298;-41
2022/05/15 08:26:15;;;;;;;0.10;0.10;;;;;;;;;;1891321;75;26230;-39
2022/05/15 08:28:42;;;;;;;0.53;0.20;;;;;;;;;;1893548;75;26832;-39
2022/05/15 08:31:10;;;;;;;1.25;0.50;;;;;;;;;;1892736;75;26654;-41
2022/05/15 08:33:38;;;;;;;2.72;0.25;;;;;;;;;;1890196;75;26269;-46
2022/05/15 08:36:06;;;;;;;0.25;0.23;;;;;;;;;;1896361;74;26270;-50
2022/05/15 08:38:33;;;;;;;0.68;0.20;;;;;;;;;;1895276;75;26238;-45
2022/05/15 08:41:19;;;;;;;0.45;0.30;;;;;;;;;;1894595;75;26270;-49
2022/05/15 08:43:53;;;;;;;0.20;0.20;;;;;;;;;;1865277;75;29506;-49
2022/05/15 08:46:40;;;;;;;0.10;0.10;;;;;;;;;;1883554;75;26203;-45
2022/05/15 08:49:12;;;;;;;0.08;0.08;;;;;;;;;;1878617;75;26676;-43
2022/05/15 08:51:41;;;;;;;0.20;0.10;;;;;;;;;;1893437;75;26332;-39
2022/05/15 08:54:09;;;;;;;0.20;0.20;;;;;;;;;;1892892;75;26238;-43
2022/05/15 08:56:38;;;;;;;0.40;0.20;;;;;;;;;;1891137;75;26783;-43
2022/05/15 08:59:07;;;;;;;0.75;0.20;;;;;;;;;;1894016;75;26246;-43
2022/05/15 09:01:35;;;;;;;0.10;0.10;;;;;;;;;;1894664;75;26293;-44
2022/05/15 09:04:02;;;;;;;0.28;0.10;;;;;;;;;;1893925;75;26308;-43
2022/05/15 09:06:31;;;;;;;0.10;0.10;;;;;;;;;;1894440;75;26843;-44
2022/05/15 09:09:12;;;;;;;0.03;0.03;;;;;;;;;;1894121;75;26246;-44
2022/05/15 09:11:53;;;;;;;0.42;0.20;;;;;;;;;;1891773;75;26777;-46
2022/05/15 09:14:27;;;;;;;0.28;0.03;;;;;;;;;;1875816;75;26808;-41
2022/05/15 09:16:56;;;;;;;2.52;0.20;;;;;;;;;;1895084;75;26701;-44
2022/05/15 09:19:24;;;;;;;0.10;0.10;;;;;;;;;;1894917;75;26316;-41
2022/05/15 09:21:55;;;;;;;0.13;0.10;;;;;;;;;;1895090;75;26242;-43
2022/05/15 09:24:27;;;;;;;0.10;0.10;;;;;;;;;;1894310;75;26835;-40
2022/05/15 09:26:54;;;;;;;0.00;0.00;;;;;;;;;;1889940;75;27372;-43
2022/05/15 09:29:28;;;;;;;0.10;0.10;;;;;;;;;;1891805;75;26237;-42
2022/05/15 09:31:56;;;;;;;0.13;0.13;;;;;;;;;;1893503;75;26241;-46
2022/05/15 09:34:37;;;;;;;0.10;0.10;;;;;;;;;;1890346;75;26222;-44
2022/05/15 09:39:51;;;;;;;0.00;0.00;;;;;;;;;;1890462;75;26759;-47
2022/05/15 09:45:11;;;;;;;0.65;0.10;;;;;;;;;;1887192;75;26722;-43
2022/05/15 09:47:39;;;;;;;0.10;0.10;;;;;;;;;;1888048;75;26230;-42
2022/05/15 09:50:08;;;;;;;0.10;0.10;;;;;;;;;;1888644;75;27607;-46
2022/05/15 09:52:37;;;;;;;0.33;0.10;;;;;;;;;;1884557;75;26245;-44
2022/05/15 09:55:09;;;;;;;1.17;0.15;;;;;;;;;;1890097;75;26207;-43
2022/05/15 09:57:36;;;;;;;0.10;0.10;;;;;;;;;;1892634;75;26332;-43
2022/05/15 10:00:07;;;;;;;0.05;0.05;;;;;;;;;;1892096;75;26253;-42
2022/05/15 10:02:38;;;;;;;0.05;0.05;;;;;;;;;;1893302;75;26245;-44
2022/05/15 10:05:13;;;;;;;0.00;0.00;;;;;;;;;;1894644;75;26324;-44
2022/05/15 10:07:44;;;;;;;0.00;0.00;;;;;;;;;;1894078;75;26690;-43
2022/05/15 10:10:17;;;;;;;0.10;0.10;;;;;;;;;;1893561;75;26334;-42
2022/05/15 10:12:46;;;;;;;1.10;0.00;;;;;;;;;;1893513;75;26669;-42
2022/05/15 10:15:14;;;;;;;0.00;0.00;;;;;;;;;;1878972;76;26797;-41
2022/05/15 10:17:46;;;;;;;0.10;0.10;;;;;;;;;;1879115;76;26260;-44
2022/05/15 10:20:21;;;;;;;0.08;0.08;;;;;;;;;;1870954;76;26568;-43
2022/05/15 10:22:50;;;;;;;0.53;0.13;;;;;;;;;;1877171;76;25594;-49
2022/05/15 10:25:18;;;;;;;0.10;0.10;;;;;;;;;;1878217;76;26246;-41
2022/05/15 10:27:47;;;;;;;0.00;0.00;;;;;;;;;;1879344;76;26242;-45
2022/05/15 10:30:16;;;;;;;0.00;0.00;;;;;;;;;;1878296;75;26311;-44
2022/05/15 10:32:45;;;;;;;1.17;0.00;;;;;;;;;;1879004;75;26309;-43
2022/05/15 10:35:14;;;;;;;0.10;0.10;;;;;;;;;;1878225;76;26239;-46
2022/05/15 10:37:52;;;;;;;0.00;0.00;;;;;;;;;;1879005;76;26243;-42
2022/05/15 10:40:21;;;;;;;0.10;0.10;;;;;;;;;;1815384;79;27460;-46
2022/05/15 10:42:49;;;;;;;0.00;0.00;;;;;;;;;;1875574;75;26809;-44
2022/05/15 10:45:27;;;;;;;0.10;0.10;;;;;;;;;;1874015;76;26698;-49
2022/05/15 10:48:14;;;;;;;1.15;0.10;;;;;;;;;;1876600;76;26708;-47
2022/05/15 10:50:43;;;;;;;1.85;0.10;;;;;;;;;;1876149;76;26255;-50
2022/05/15 10:59:03;;;;;;;0.75;0.10;;;;;;;;;;1878348;76;26876;-53
2022/05/15 11:01:32;;;;;;;0.00;0.00;;;;;;;;;;1878435;76;26240;-48
2022/05/15 11:04:19;;;;;;;0.10;0.10;;;;;;;;;;1873562;75;26337;-52
2022/05/15 11:06:48;;;;;;;0.20;0.10;;;;;;;;;;1869947;76;26265;-48
2022/05/15 11:09:17;;;;;;;0.10;0.10;;;;;;;;;;1873096;75;26408;-49
2022/05/15 11:11:54;;;;;;;0.23;0.10;;;;;;;;;;1878486;76;26263;-52
2022/05/15 11:14:29;;;;;;;1.20;0.10;;;;;;;;;;1877317;76;26791;-46
2022/05/15 11:16:59;;;;;;;0.55;0.15;;;;;;;;;;1817709;76;26255;-53
2022/05/15 11:19:31;;;;;;;0.00;0.00;;;;;;;;;;1879111;76;26239;-48
2022/05/15 11:22:03;;;;;;;0.10;0.10;;;;;;;;;;1875109;76;26270;-53
2022/05/15 11:24:31;;;;;;;0.00;0.00;;;;;;;;;;1872375;76;26320;-47
2022/05/15 11:27:00;;;;;;;0.05;0.05;;;;;;;;;;1868567;75;26691;-48
2022/05/15 11:29:29;;;;;;;0.00;0.00;;;;;;;;;;1878759;76;26253;-44
2022/05/15 11:31:57;;;;;;;0.17;0.17;;;;;;;;;;1879756;76;26308;-45
2022/05/15 11:34:44;;;;;;;0.20;0.20;;;;;;;;;;1879862;76;26282;-46
2022/05/15 11:37:30;;;;;;;0.00;0.00;;;;;;;;;;1775277;78;26726;-44
2022/05/15 11:39:59;;;;;;;0.00;0.00;;;;;;;;;;1793494;78;26413;-45
2022/05/15 11:42:28;;;;;;;0.20;0.20;;;;;;;;;;1830786;76;26263;-43
2022/05/15 11:44:55;;;;;;;0.50;0.10;;;;;;;;;;1860513;76;26313;-48
2022/05/15 11:47:24;;;;;;;0.10;0.10;;;;;;;;;;1876326;76;26615;-47
2022/05/15 11:50:03;;;;;;;0.00;0.00;;;;;;;;;;1876516;75;26666;-49
2022/05/15 11:52:35;;;;;;;0.10;0.10;;;;;;;;;;1879824;76;26797;-45
2022/05/15 11:55:04;;;;;;;0.00;0.00;;;;;;;;;;1879542;76;26243;-46
2022/05/15 11:57:34;;;;;;;0.10;0.10;;;;;;;;;;1875915;76;26239;-44
2022/05/15 12:00:03;;;;;;;0.20;0.20;;;;;;;;;;1875523;75;26330;-47
2022/05/15 12:02:32;;;;;;;0.10;0.10;;;;;;;;;;1876241;76;26321;-46
2022/05/15 12:05:01;;;;;;;0.10;0.10;;;;;;;;;;1876415;76;25705;-44
2022/05/15 12:07:30;;;;;;;0.10;0.10;;;;;;;;;;1879471;76;26274;-46
2022/05/15 12:09:57;;;;;;;0.10;0.10;;;;;;;;;;1877150;76;26270;-46
2022/05/15 12:12:31;;;;;;;0.10;0.10;;;;;;;;;;1879233;75;26272;-46
2022/05/15 12:15:19;;;;;;;0.00;0.00;;;;;;;;;;1882994;74;26243;-43
2022/05/15 12:17:47;;;;;;;0.00;0.00;;;;;;;;;;1889210;75;26270;-48
2022/05/15 12:22:52;;;;;;;0.00;0.00;;;;;;;;;;1890927;74;27453;-48
2022/05/15 12:25:21;;;;;;;1.65;0.10;;;;;;;;;;1848691;76;26289;-44
2022/05/15 12:27:53;;;;;;;0.65;0.10;;;;;;;;;;1863802;76;26257;-45
2022/05/15 12:30:24;;;;;;;0.20;0.10;;;;;;;;;;1846162;76;26263;-44
2022/05/15 12:32:56;;;;;;;2.05;0.17;;;;;;;;;;1857780;76;26320;-48
2022/05/15 12:35:25;;;;;;;0.10;0.10;;;;;;;;;;1855321;75;26254;-47
2022/05/15 12:37:53;;;;;;;1.12;0.10;;;;;;;;;;1867201;76;27917;-46
2022/05/15 12:40:25;;;;;;;0.10;0.10;;;;;;;;;;1859022;76;27142;-46
2022/05/15 12:42:53;;;;;;;0.10;0.10;;;;;;;;;;1859981;76;26279;-44
2022/05/15 12:45:21;;;;;;;0.15;0.15;;;;;;;;;;1865791;75;26255;-47
2022/05/15 12:47:59;;;;;;;0.10;0.10;;;;;;;;;;1863859;76;26310;-46
2022/05/15 12:50:27;;;;;;;1.75;0.20;;;;;;;;;;1863868;76;26317;-49
2022/05/15 12:52:56;;;;;;;0.30;0.10;;;;;;;;;;1866910;76;26292;-45
2022/05/15 12:55:36;;;;;;;5.25;0.30;;;;;;;;;;1879258;76;26336;-48
2022/05/15 12:58:07;;;;;;;2.37;0.35;;;;;;;;;;1868739;75;26328;-43
2022/05/15 13:00:35;;;;;;;8.78;0.62;;;;;;;;;;1875256;76;26286;-43
2022/05/15 13:03:04;;;;;;;1.05;0.33;;;;;;;;;;1878956;76;26969;-49
2022/05/15 13:05:33;;;;;;;2.25;0.60;;;;;;;;;;1878855;76;26310;-46
2022/05/15 13:08:03;;;;;;;2.92;0.70;;;;;;;;;;1871025;75;26293;-49
2022/05/15 13:10:31;;;;;;;4.67;0.70;;;;;;;;;;1869492;76;26348;-44
2022/05/15 13:13:08;;;;;;;2.00;0.50;;;;;;;;;;1870966;76;26263;-42
2022/05/15 13:15:36;;;;;;;1.05;0.50;;;;;;;;;;1872694;76;26276;-47
2022/05/15 13:18:08;;;;;;;0.40;0.40;;;;;;;;;;1867289;76;26717;-43
2022/05/15 13:20:40;;;;;;;1.25;0.60;;;;;;;;;;1859254;75;26671;-45
2022/05/15 13:23:11;;;;;;;5.35;0.70;;;;;;;;;;1888125;75;26780;-46
2022/05/15 13:25:39;;;;;;;4.15;0.75;;;;;;;;;;1881881;75;26268;-47
2022/05/15 13:28:08;;;;;;;3.45;0.70;;;;;;;;;;1890975;75;26242;-43
2022/05/15 13:30:36;;;;;;;2.40;0.60;;;;;;;;;;1894902;74;27381;-46
2022/05/15 13:33:05;;;;;;;3.30;0.50;;;;;;;;;;1892853;75;26226;-46
2022/05/15 13:35:34;;;;;;;0.50;0.50;;;;;;;;;;1893217;75;26249;-45
2022/05/15 13:38:03;;;;;;;0.68;0.50;;;;;;;;;;1882091;75;26241;-48
2022/05/15 13:43:31;;;;;;;0.50;0.50;;;;;;;;;;1878785;75;26751;-46
2022/05/15 13:46:00;;;;;;;1.00;0.50;;;;;;;;;;1882928;75;26392;-45
2022/05/15 13:48:28;;;;;;;1.85;0.60;;;;;;;;;;1894050;75;26781;-46
2022/05/15 13:50:57;;;;;;;1.70;0.50;;;;;;;;;;1887573;75;26273;-45
2022/05/15 13:53:25;;;;;;;0.33;0.33;;;;;;;;;;1863645;74;26256;-47
2022/05/15 13:55:57;;;;;;;1.17;0.40;;;;;;;;;;1876603;75;26567;-50
2022/05/15 13:58:41;;;;;;;1.57;0.50;;;;;;;;;;1876831;75;26531;-45
2022/05/15 14:01:10;;;;;;;0.30;0.30;;;;;;;;;;1865430;75;26288;-45
2022/05/15 14:03:37;;;;;;;1.20;0.45;;;;;;;;;;1885872;74;26316;-42
2022/05/15 14:06:16;;;;;;;0.30;0.30;;;;;;;;;;1885243;74;26268;-44
2022/05/15 14:09:01;;;;;;;0.80;0.40;;;;;;;;;;1885470;74;26273;-49
2022/05/15 14:11:30;;;;;;;1.62;0.50;;;;;;;;;;1890924;75;26195;-42
2022/05/15 14:13:57;;;;;;;0.30;0.30;;;;;;;;;;1875401;76;26284;-40
2022/05/15 14:16:26;;;;;;;0.95;0.30;;;;;;;;;;1879631;74;26425;-50
2022/05/15 14:18:53;;;;;;;1.65;0.60;;;;;;;;;;1867998;75;26288;-47
2022/05/15 14:21:22;;;;;;;0.40;0.30;;;;;;;;;;1868099;75;26261;-47
2022/05/15 14:23:50;;;;;;;2.12;0.40;;;;;;;;;;1866990;75;27533;-46
2022/05/15 14:26:18;;;;;;;4.70;0.40;;;;;;;;;;1885956;74;26269;-42
2022/05/15 14:28:50;;;;;;;7.05;0.50;;;;;;;;;;1877512;75;26362;-45
2022/05/15 14:31:20;;;;;;;1.32;0.33;;;;;;;;;;1881043;75;26252;-44
2022/05/15 14:33:48;;;;;;;0.35;0.30;;;;;;;;;;1875789;75;26317;-45
2022/05/15 14:36:19;;;;;;;1.17;0.60;;;;;;;;;;1879366;75;26493;-42
2022/05/15 14:38:47;;;;;;;0.30;0.30;;;;;;;;;;1876587;75;26250;-45
2022/05/15 14:41:14;;;;;;;0.65;0.30;;;;;;;;;;1884813;75;26320;-46
2022/05/15 14:43:42;;;;;;;0.20;0.20;;;;;;;;;;1877559;75;26240;-46
2022/05/15 14:46:10;;;;;;;0.40;0.40;;;;;;;;;;1881514;75;26292;-45
2022/05/15 14:48:39;;;;;;;0.37;0.37;;;;;;;;;;1880433;75;26307;-43
2022/05/15 14:51:08;;;;;;;4.95;0.40;;;;;;;;;;1886962;75;26719;-42
2022/05/15 14:53:36;;;;;;;0.20;0.20;;;;;;;;;;1870688;75;26779;-45
2022/05/15 14:56:07;;;;;;;0.65;0.40;;;;;;;;;;1886783;75;26738;-42
2022/05/15 14:58:48;;;;;;;0.10;0.10;;;;;;;;;;1875351;75;26249;-46
2022/05/15 15:01:18;;;;;;;0.53;0.40;;;;;;;;;;1885573;74;26255;-41
2022/05/15 15:03:45;;;;;;;0.65;0.40;;;;;;;;;;1895064;75;26250;-41
2022/05/15 15:06:13;;;;;;;0.23;0.23;;;;;;;;;;1889458;75;26468;-45
2022/05/15 15:08:40;;;;;;;1.32;0.30;;;;;;;;;;1872554;75;38474;-44
2022/05/15 15:11:12;;;;;;;0.80;0.40;;;;;;;;;;1887766;75;26228;-48
2022/05/15 15:13:40;;;;;;;0.30;0.30;;;;;;;;;;1892518;75;26319;-45
2022/05/15 15:16:08;;;;;;;0.20;0.20;;;;;;;;;;1888454;75;26262;-46
2022/05/15 15:18:36;;;;;;;0.95;0.30;;;;;;;;;;1875499;74;26324;-47
2022/05/15 15:21:04;;;;;;;1.85;0.30;;;;;;;;;;1873284;75;26257;-48
2022/05/15 15:23:31;;;;;;;0.35;0.20;;;;;;;;;;1865361;75;26714;-48
2022/05/15 15:25:59;;;;;;;1.37;0.15;;;;;;;;;;1859358;76;26835;-43
2022/05/15 15:28:26;;;;;;;0.20;0.20;;;;;;;;;;1857075;75;26781;-45